Portada
METAR-TAF:

METAR-TAF

Aeroports :

Lonesome Pine Airport

Wise, Virgínia, Estats Units d'Amèrica

latitud: 36-59N, longitud: 082-32W, altitud: 817 m

Observació

L'informe es va fer fa 11 minuts, a les 17:35 UTC
Vent 4 kt del Oest/Sud-Oest
Temperatura 22°C
Humitat 78%
Pressió 1023 hPa
Visibilitat: 16.1 km
Núvols disperses a una alçada de 2000 ft
Núvols disperses a una alçada de 3900 ft
Cel cobert a una alçada de 11000 ft

METAR: KLNP 251735Z AUTO 25004KT 10SM SCT020 SCT039 OVC110 22/18 A3021 RMK AO2 LTG DSNT N THRU SE

Hora: 13:46 (17:46 UTC)


TAF: manca

Observacions i pronòstics meteorològics de més de 4000 aeroports (METAR i TAF).

Les estacions disponibles són els punts grocs i vermells al mapa.

Posi el ratolí al punt desitjat per veure el nom de l'estació.

Feu clic per veure les observacions i els pronòstics meteorològics.

Per canviar el mapa: feu clic els botons verds amb una creu de color negre per apropar; al botó verd amb un guió per allunyar la imatge; o en les fletxes verdes per a mapes adjacents.


METAR-TAF: